Time;durP1;ratioP1;P1;durP2;ratioP2;P2;SDS_P1;SDS_P2;PMS_P1;PMS_P2;Temp;Humidity;BMP_temperature;BMP_pressure;BME280_temperature;BME280_humidity;BME280_pressure;Samples;Min_cycle;Max_cycle;Signal;HPM_P1;HPM_P2
2023/06/28 00:00:30;;;;;;;9.85;7.65;;;25.40;69.90;;;;;;5116507;27;20083;-79
2023/06/28 00:02:56;;;;;;;10.43;7.63;;;25.30;70.20;;;;;;5133797;27;20026;-79
2023/06/28 00:05:22;;;;;;;11.63;7.70;;;25.20;70.60;;;;;;5133498;27;20110;-79
2023/06/28 00:07:48;;;;;;;13.63;7.10;;;25.30;70.60;;;;;;5135269;27;20050;-81
2023/06/28 00:10:14;;;;;;;9.32;7.65;;;25.20;70.80;;;;;;5135004;27;20102;-79
2023/06/28 00:12:40;;;;;;;8.63;7.63;;;25.20;70.90;;;;;;5135840;27;20034;-79
2023/06/28 00:15:07;;;;;;;10.67;7.13;;;25.10;71.30;;;;;;5133512;27;20027;-79
2023/06/28 00:17:33;;;;;;;9.73;7.18;;;25.10;71.60;;;;;;5135045;27;20019;-79
2023/06/28 00:20:06;;;;;;;8.37;6.13;;;25.10;71.90;;;;;;5133487;27;20027;-79
2023/06/28 00:22:33;;;;;;;8.77;7.32;;;25.00;72.20;;;;;;5134033;27;20030;-79
2023/06/28 00:25:00;;;;;;;7.97;6.88;;;24.90;72.70;;;;;;5134584;27;20015;-79
2023/06/28 00:27:27;;;;;;;7.93;6.50;;;24.90;72.70;;;;;;5134689;27;20027;-79
2023/06/28 00:29:55;;;;;;;9.73;6.82;;;24.90;72.90;;;;;;5133598;27;20031;-79
2023/06/28 00:32:22;;;;;;;11.07;6.93;;;24.90;73.10;;;;;;5133456;27;20089;-80
2023/06/28 00:34:47;;;;;;;8.00;7.20;;;24.80;73.30;;;;;;5134293;27;20039;-79
2023/06/28 00:37:13;;;;;;;11.07;7.63;;;24.70;73.90;;;;;;5134510;27;20019;-79
2023/06/28 00:39:40;;;;;;;9.40;8.00;;;24.70;74.20;;;;;;5133590;27;20042;-79
2023/06/28 00:42:06;;;;;;;9.20;8.18;;;24.70;74.50;;;;;;5134020;27;20764;-79
2023/06/28 00:44:32;;;;;;;10.03;8.20;;;24.70;74.70;;;;;;5116726;27;20072;-80
2023/06/28 00:47:01;;;;;;;14.65;7.07;;;24.60;75.20;;;;;;5135211;27;20027;-80
2023/06/28 00:49:33;;;;;;;7.20;6.43;;;24.60;75.70;;;;;;5134391;27;20054;-80
2023/06/28 00:52:00;;;;;;;9.07;6.93;;;24.60;75.80;;;;;;5136546;27;20053;-80
2023/06/28 00:54:26;;;;;;;11.73;6.53;;;24.60;76.00;;;;;;5134085;27;20514;-80
2023/06/28 00:56:52;;;;;;;7.87;7.07;;;24.60;76.30;;;;;;5116111;27;20030;-80
2023/06/28 00:59:18;;;;;;;10.18;7.63;;;24.50;76.80;;;;;;5135093;27;20421;-80
2023/06/28 01:01:44;;;;;;;9.77;7.03;;;24.50;77.30;;;;;;5116689;27;20038;-80
2023/06/28 01:04:13;;;;;;;8.98;8.07;;;24.50;77.50;;;;;;5133331;27;20106;-79
2023/06/28 01:06:41;;;;;;;7.40;6.60;;;24.40;77.80;;;;;;5116179;27;20050;-79
2023/06/28 01:09:10;;;;;;;9.13;7.25;;;24.40;77.80;;;;;;5134046;27;20571;-80
2023/06/28 01:11:37;;;;;;;9.75;6.93;;;24.40;78.10;;;;;;5134989;27;20031;-80
2023/06/28 01:14:05;;;;;;;11.43;7.13;;;24.40;78.30;;;;;;5132977;27;20027;-80
2023/06/28 01:16:33;;;;;;;10.75;8.18;;;24.40;78.10;;;;;;5132734;27;20117;-80
2023/06/28 01:19:00;;;;;;;8.45;7.50;;;24.40;78.30;;;;;;5115502;27;20504;-80
2023/06/28 01:21:30;;;;;;;9.82;7.18;;;24.40;78.80;;;;;;5133148;27;20027;-80
2023/06/28 01:24:00;;;;;;;9.25;6.53;;;24.40;78.90;;;;;;5133726;27;20030;-80
2023/06/28 01:26:27;;;;;;;8.30;6.07;;;24.30;79.60;;;;;;5115969;28;20051;-80
2023/06/28 01:28:55;;;;;;;8.75;6.68;;;24.20;80.10;;;;;;5116527;27;20418;-79
2023/06/28 01:31:21;;;;;;;10.25;6.32;;;24.20;80.50;;;;;;5133117;27;20019;-80
2023/06/28 01:33:48;;;;;;;9.93;6.50;;;24.10;80.90;;;;;;5134422;27;20039;-80
2023/06/28 01:36:14;;;;;;;10.35;6.82;;;24.10;81.40;;;;;;5133393;27;20380;-79
2023/06/28 01:38:41;;;;;;;9.07;5.60;;;24.10;81.90;;;;;;5134134;28;20210;-80
2023/06/28 01:41:08;;;;;;;9.23;5.85;;;24.00;82.30;;;;;;5118898;28;20023;-80
2023/06/28 01:43:34;;;;;;;;;;;23.90;82.80;;;;;;5134179;27;20027;-80
2023/06/28 01:46:01;;;;;;;9.38;6.18;;;23.90;83.10;;;;;;5136221;28;19919;-80
2023/06/28 01:48:27;;;;;;;6.63;5.75;;;23.90;83.30;;;;;;5134592;28;20079;-80
2023/06/28 01:50:53;;;;;;;8.32;5.68;;;23.90;84.00;;;;;;5135661;27;20023;-80
2023/06/28 01:53:20;;;;;;;6.20;5.40;;;23.80;83.90;;;;;;5135845;28;20035;-81
2023/06/28 01:55:46;;;;;;;6.22;5.00;;;23.90;84.00;;;;;;5134770;28;20479;-80
2023/06/28 01:58:12;;;;;;;5.55;4.57;;;23.90;84.10;;;;;;5134476;28;20031;-80
2023/06/28 02:00:38;;;;;;;8.97;4.97;;;23.90;84.40;;;;;;5134306;28;20059;-80
2023/06/28 02:03:04;;;;;;;5.40;4.77;;;23.90;84.60;;;;;;5134482;28;20034;-80
2023/06/28 02:05:31;;;;;;;9.70;5.33;;;23.80;84.40;;;;;;5135339;28;20542;-79
2023/06/28 02:07:56;;;;;;;9.95;4.93;;;23.80;84.50;;;;;;5133497;27;20015;-80
2023/06/28 02:10:23;;;;;;;5.80;5.10;;;23.80;85.00;;;;;;5116818;28;20091;-80
2023/06/28 02:12:50;;;;;;;4.90;4.25;;;23.80;85.50;;;;;;5133882;27;20063;-80
2023/06/28 02:15:18;;;;;;;5.18;4.38;;;23.80;85.40;;;;;;5134397;28;20026;-80
2023/06/28 02:17:44;;;;;;;7.80;5.10;;;23.90;85.50;;;;;;5133795;28;20118;-80
2023/06/28 02:20:10;;;;;;;7.03;4.95;;;23.90;85.30;;;;;;5134419;28;20039;-80
2023/06/28 02:22:37;;;;;;;5.82;4.45;;;23.90;85.60;;;;;;5117090;28;20080;-79
2023/06/28 02:25:04;;;;;;;5.25;4.40;;;23.90;85.80;;;;;;5135235;27;20029;-80
2023/06/28 02:27:30;;;;;;;6.57;4.13;;;23.90;85.60;;;;;;5134933;28;20068;-79
2023/06/28 02:29:59;;;;;;;6.20;3.80;;;23.90;85.40;;;;;;5134023;28;20503;-80
2023/06/28 02:32:25;;;;;;;4.90;3.78;;;23.90;85.60;;;;;;5134231;27;20471;-80
2023/06/28 02:34:51;;;;;;;5.97;4.15;;;23.90;85.50;;;;;;5117574;28;20027;-80
2023/06/28 02:37:17;;;;;;;8.60;4.37;;;23.90;85.30;;;;;;5137242;27;20547;-80
2023/06/28 02:39:42;;;;;;;4.30;3.67;;;23.90;85.30;;;;;;5134054;27;20056;-79
2023/06/28 02:42:08;;;;;;;6.77;4.07;;;23.90;85.50;;;;;;5133359;28;20087;-80
2023/06/28 02:44:35;;;;;;;4.50;3.70;;;23.90;85.70;;;;;;5133556;27;20035;-80
2023/06/28 02:47:01;;;;;;;4.10;3.60;;;23.90;85.70;;;;;;5133416;28;20030;-80
2023/06/28 02:49:26;;;;;;;4.73;3.63;;;23.90;85.70;;;;;;5116820;28;20114;-80
2023/06/28 02:51:52;;;;;;;4.80;4.10;;;23.90;85.80;;;;;;5115816;28;20441;-80
2023/06/28 02:54:19;;;;;;;5.05;4.25;;;23.90;85.80;;;;;;5137743;27;20072;-80
2023/06/28 02:56:45;;;;;;;5.28;4.13;;;23.70;85.90;;;;;;5137504;27;20027;-80
2023/06/28 02:59:16;;;;;;;7.30;4.07;;;23.80;86.00;;;;;;5139397;27;20491;-80
2023/06/28 03:01:43;;;;;;;5.93;3.92;;;23.70;86.00;;;;;;5137455;27;20023;-80
2023/06/28 03:04:10;;;;;;;6.43;3.87;;;23.80;86.00;;;;;;5122018;27;20114;-80
2023/06/28 03:06:36;;;;;;;5.30;4.10;;;23.70;86.20;;;;;;5138015;27;20027;-80
2023/06/28 03:09:02;;;;;;;5.10;4.23;;;23.70;86.40;;;;;;5139443;27;20023;-80
2023/06/28 03:11:27;;;;;;;5.60;3.67;;;23.70;86.40;;;;;;5120503;27;20115;-80
2023/06/28 03:13:54;;;;;;;6.78;3.80;;;23.70;86.50;;;;;;5135711;27;20027;-80
2023/06/28 03:16:22;;;;;;;4.68;4.05;;;23.70;87.20;;;;;;5129294;27;20028;-80
2023/06/28 03:18:48;;;;;;;6.80;4.05;;;23.70;86.50;;;;;;5122989;27;20030;-80
2023/06/28 03:21:14;;;;;;;4.47;4.03;;;23.70;86.70;;;;;;5115135;28;20031;-81
2023/06/28 03:23:40;;;;;;;5.47;4.00;;;23.70;86.50;;;;;;5115303;28;20447;-80
2023/06/28 03:26:06;;;;;;;4.50;3.93;;;23.80;86.80;;;;;;5097798;28;20110;-80
2023/06/28 03:28:31;;;;;;;7.20;4.57;;;23.70;86.40;;;;;;5097365;28;20074;-80
2023/06/28 03:30:58;;;;;;;6.10;5.03;;;23.80;86.30;;;;;;5114834;28;20028;-80
2023/06/28 03:33:24;;;;;;;5.75;4.43;;;23.80;86.60;;;;;;5121691;27;20031;-81
2023/06/28 03:35:49;;;;;;;5.50;4.43;;;23.70;86.70;;;;;;5096246;28;20476;-80
2023/06/28 03:38:16;;;;;;;9.00;5.00;;;23.70;87.00;;;;;;5114116;27;20023;-80
2023/06/28 03:40:42;;;;;;;6.97;4.85;;;23.60;87.20;;;;;;5113364;28;20032;-80
2023/06/28 03:43:09;;;;;;;5.45;4.43;;;23.60;87.40;;;;;;5118458;27;20022;-80
2023/06/28 03:45:34;;;;;;;6.43;4.80;;;23.60;87.30;;;;;;5133413;27;20032;-80
2023/06/28 03:48:01;;;;;;;5.30;4.32;;;23.70;87.30;;;;;;5123509;27;20114;-80
2023/06/28 03:50:27;;;;;;;8.97;5.10;;;23.70;87.50;;;;;;5131242;27;20051;-80
2023/06/28 03:52:53;;;;;;;8.55;5.40;;;23.60;87.70;;;;;;5126919;27;20027;-79
2023/06/28 03:55:19;;;;;;;7.30;5.20;;;23.60;88.10;;;;;;5123877;27;20089;-79
2023/06/28 03:57:45;;;;;;;6.93;4.93;;;23.50;88.30;;;;;;5114156;28;20114;-79
2023/06/28 04:00:12;;;;;;;6.10;5.33;;;23.50;88.20;;;;;;5112624;28;20035;-79
2023/06/28 04:02:43;;;;;;;5.65;4.97;;;23.60;88.50;;;;;;5113280;28;20027;-79
2023/06/28 04:05:10;;;;;;;6.90;5.07;;;23.50;88.40;;;;;;5114294;28;20023;-78
2023/06/28 04:07:35;;;;;;;5.45;4.85;;;23.60;88.10;;;;;;5113333;28;20080;-78
2023/06/28 04:10:02;;;;;;;7.07;4.37;;;23.60;88.40;;;;;;5130170;27;20031;-79
2023/06/28 04:12:28;;;;;;;6.70;4.93;;;23.60;88.60;;;;;;5114612;28;20036;-79
2023/06/28 04:14:54;;;;;;;5.17;4.60;;;23.60;88.60;;;;;;5114063;28;20032;-78
2023/06/28 04:17:20;;;;;;;5.90;4.90;;;23.60;88.90;;;;;;5113902;28;20551;-79
2023/06/28 04:19:46;;;;;;;10.00;4.80;;;23.70;88.90;;;;;;5112854;28;20027;-79
2023/06/28 04:22:11;;;;;;;6.87;5.00;;;23.70;88.40;;;;;;5113997;28;20024;-80
2023/06/28 04:24:37;;;;;;;5.27;4.77;;;23.70;88.50;;;;;;5113677;28;20119;-83
2023/06/28 04:27:03;;;;;;;5.50;4.87;;;23.70;88.80;;;;;;5129477;27;20024;-78
2023/06/28 04:29:29;;;;;;;7.18;4.88;;;23.70;89.20;;;;;;5129735;27;20571;-78
2023/06/28 04:32:02;;;;;;;12.60;5.67;;;23.90;88.70;;;;;;5113879;28;20065;-78
2023/06/28 04:34:28;;;;;;;5.18;4.57;;;23.90;88.50;;;;;;5129185;27;20031;-79
2023/06/28 04:36:56;;;;;;;7.82;5.65;;;23.90;87.90;;;;;;5112502;28;20034;-79
2023/06/28 04:39:23;;;;;;;6.95;4.75;;;23.90;87.40;;;;;;5112192;28;20036;-87
2023/06/28 04:41:48;;;;;;;5.88;4.57;;;24.00;87.40;;;;;;5129010;27;20480;-85
2023/06/28 04:44:15;;;;;;;9.90;4.83;;;24.00;87.20;;;;;;5112060;28;20038;-85
2023/06/28 04:46:44;;;;;;;9.55;5.38;;;24.00;87.50;;;;;;5113313;28;20031;-85
2023/06/28 04:49:10;;;;;;;8.10;5.47;;;24.00;87.90;;;;;;5112383;28;20454;-84
2023/06/28 04:51:36;;;;;;;7.80;4.57;;;24.00;88.00;;;;;;5115660;27;20540;-85
2023/06/28 04:54:09;;;;;;;8.23;4.53;;;24.10;87.90;;;;;;5126950;27;20036;-83
2023/06/28 04:56:41;;;;;;;7.65;5.47;;;24.10;87.90;;;;;;5102024;28;20031;-82
2023/06/28 04:59:06;;;;;;;7.67;4.97;;;24.20;87.70;;;;;;5112958;28;20022;-85
2023/06/28 05:01:34;;;;;;;11.63;4.53;;;24.20;87.50;;;;;;5075308;22;20096;-81
2023/06/28 05:04:00;;;;;;;12.70;5.05;;;24.20;88.20;;;;;;5039496;28;20053;-84
2023/06/28 05:06:28;;;;;;;6.20;4.47;;;24.20;87.90;;;;;;5038511;28;20022;-84
2023/06/28 05:08:54;;;;;;;6.63;4.85;;;24.20;87.40;;;;;;5021223;28;20032;-84
2023/06/28 05:11:20;;;;;;;6.20;4.60;;;24.20;87.60;;;;;;5039145;28;20022;-84
2023/06/28 05:13:45;;;;;;;5.70;4.43;;;24.30;87.20;;;;;;5039341;28;20428;-83
2023/06/28 05:16:11;;;;;;;7.10;4.70;;;24.30;86.80;;;;;;5036757;28;20030;-85
2023/06/28 05:18:37;;;;;;;7.47;3.90;;;24.30;86.60;;;;;;5037756;28;20029;-85
2023/06/28 05:21:03;;;;;;;5.07;4.27;;;24.40;86.60;;;;;;5038255;28;20517;-86
2023/06/28 05:23:28;;;;;;;11.50;5.40;;;24.50;85.80;;;;;;5040394;28;20034;-84
2023/06/28 05:25:55;;;;;;;4.10;3.57;;;24.40;86.20;;;;;;5059906;28;20032;-84
2023/06/28 05:28:21;;;;;;;5.82;4.15;;;24.50;85.50;;;;;;5060798;28;20041;-84
2023/06/28 05:30:47;;;;;;;5.55;3.30;;;24.40;84.70;;;;;;5042682;28;20029;-85
2023/06/28 05:33:12;;;;;;;4.57;3.73;;;24.40;84.00;;;;;;5062638;28;20077;-84
2023/06/28 05:35:38;;;;;;;6.87;3.40;;;24.50;84.00;;;;;;5063557;28;20029;-85
2023/06/28 05:38:05;;;;;;;5.35;3.40;;;24.50;83.50;;;;;;5059414;28;20703;-84
2023/06/28 05:40:32;;;;;;;4.90;3.10;;;24.50;83.30;;;;;;5043719;28;20040;-85
2023/06/28 05:42:58;;;;;;;4.82;3.15;;;24.50;82.70;;;;;;5058078;28;20524;-84
2023/06/28 05:45:25;;;;;;;3.45;3.10;;;24.50;83.00;;;;;;5054378;28;20033;-86
2023/06/28 05:47:51;;;;;;;4.35;3.50;;;24.50;82.40;;;;;;5056935;28;20025;-85
2023/06/28 05:50:20;;;;;;;5.15;3.90;;;24.50;82.50;;;;;;5056342;28;20021;-88
2023/06/28 05:52:46;;;;;;;5.70;3.88;;;24.60;82.80;;;;;;5036527;28;20075;-86
2023/06/28 05:55:12;;;;;;;4.45;3.05;;;24.70;82.70;;;;;;5017183;28;20482;-85
2023/06/28 05:57:39;;;;;;;11.90;3.50;;;24.80;82.20;;;;;;5021070;28;20081;-85
2023/06/28 06:00:06;;;;;;;5.32;3.28;;;24.90;81.40;;;;;;5045571;28;20049;-85
2023/06/28 06:02:33;;;;;;;3.25;2.78;;;25.00;80.80;;;;;;5046024;28;20017;-84
2023/06/28 06:05:00;;;;;;;4.37;3.33;;;25.10;80.00;;;;;;5052663;28;20032;-84
2023/06/28 06:07:26;;;;;;;5.13;3.63;;;25.20;78.60;;;;;;5051904;28;20078;-84
2023/06/28 06:09:54;;;;;;;7.22;3.45;;;25.40;77.90;;;;;;5051442;28;20060;-85
2023/06/28 06:12:20;;;;;;;3.42;2.80;;;25.50;77.40;;;;;;5049382;28;20030;-85
2023/06/28 06:14:47;;;;;;;7.47;3.27;;;25.50;76.50;;;;;;5025132;28;20084;-85
2023/06/28 06:17:13;;;;;;;7.10;5.20;;;25.70;75.50;;;;;;5041217;28;20033;-85
2023/06/28 06:19:39;;;;;;;5.33;3.10;;;25.80;75.30;;;;;;5040146;28;20025;-82
2023/06/28 06:22:05;;;;;;;4.77;3.10;;;25.90;74.20;;;;;;5035100;28;20029;-79
2023/06/28 06:24:31;;;;;;;6.82;2.42;;;25.90;74.40;;;;;;5036235;28;20040;-80
2023/06/28 06:26:57;;;;;;;4.63;2.63;;;25.90;73.90;;;;;;5036038;28;20025;-79
2023/06/28 06:29:23;;;;;;;5.10;3.08;;;26.00;74.00;;;;;;5037681;28;20060;-79
2023/06/28 06:31:48;;;;;;;11.87;3.20;;;25.90;72.80;;;;;;5038446;28;20021;-85
2023/06/28 06:34:14;;;;;;;3.60;2.20;;;25.80;72.40;;;;;;5021933;28;20052;-79
2023/06/28 06:36:40;;;;;;;3.07;2.47;;;25.80;72.50;;;;;;5038983;28;20651;-80
2023/06/28 06:39:06;;;;;;;7.93;3.00;;;25.80;72.50;;;;;;5039735;28;20398;-78
2023/06/28 06:41:32;;;;;;;3.53;2.53;;;25.80;72.40;;;;;;5037750;28;20252;-77
2023/06/28 06:43:58;;;;;;;10.03;2.30;;;25.80;71.70;;;;;;5020988;28;20026;-82
2023/06/28 06:46:24;;;;;;;2.67;2.20;;;25.90;71.60;;;;;;5039108;28;20034;-79
2023/06/28 06:48:50;;;;;;;4.35;2.35;;;26.10;71.70;;;;;;5038641;28;20256;-79
2023/06/28 06:51:16;;;;;;;4.13;2.57;;;26.10;71.20;;;;;;5039109;28;20029;-80
2023/06/28 06:53:42;;;;;;;4.77;2.60;;;26.20;70.70;;;;;;5038858;28;20033;-80
2023/06/28 06:56:07;;;;;;;3.37;2.33;;;26.30;70.90;;;;;;5037046;28;20045;-80
2023/06/28 06:58:33;;;;;;;3.83;2.20;;;26.30;70.10;;;;;;5037759;28;20089;-81
2023/06/28 07:00:59;;;;;;;4.17;2.50;;;26.30;69.80;;;;;;5038089;28;20025;-83
2023/06/28 07:03:25;;;;;;;4.83;2.83;;;26.40;69.80;;;;;;5037103;28;20022;-84
2023/06/28 07:05:51;;;;;;;3.80;2.90;;;26.40;70.80;;;;;;5038327;28;20033;-80
2023/06/28 07:08:17;;;;;;;3.45;2.60;;;26.40;69.80;;;;;;5037992;28;20052;-80
2023/06/28 07:10:43;;;;;;;4.82;2.75;;;26.40;69.70;;;;;;5038267;28;20116;-83
2023/06/28 07:13:12;;;;;;;5.30;3.13;;;26.50;69.60;;;;;;5039044;28;20057;-84
2023/06/28 07:15:38;;;;;;;7.53;3.25;;;26.50;69.70;;;;;;5039015;28;20099;-83
2023/06/28 07:18:04;;;;;;;7.03;2.97;;;26.60;69.90;;;;;;5037083;28;20493;-81
2023/06/28 07:20:30;;;;;;;9.48;2.80;;;26.60;69.20;;;;;;5038458;28;20036;-82
2023/06/28 07:22:55;;;;;;;5.30;2.73;;;26.60;68.50;;;;;;5037282;28;20025;-83
2023/06/28 07:25:21;;;;;;;4.67;2.97;;;26.70;69.30;;;;;;5037278;28;20033;-83
2023/06/28 07:27:47;;;;;;;10.53;2.90;;;26.70;69.00;;;;;;5038548;28;20022;-81
2023/06/28 07:30:13;;;;;;;4.80;2.97;;;26.80;69.30;;;;;;5036973;28;20030;-81
2023/06/28 07:32:39;;;;;;;10.03;3.13;;;26.90;68.50;;;;;;5038679;28;20079;-82
2023/06/28 07:35:05;;;;;;;4.40;2.47;;;26.90;68.30;;;;;;5038374;28;20029;-81
2023/06/28 07:37:31;;;;;;;9.70;4.10;;;27.00;67.30;;;;;;5038047;28;20032;-81
2023/06/28 07:40:00;;;;;;;6.10;3.30;;;26.90;67.40;;;;;;5037739;28;20085;-82
2023/06/28 07:42:27;;;;;;;7.80;3.50;;;27.00;67.30;;;;;;5036894;28;20025;-81
2023/06/28 07:44:52;;;;;;;3.53;2.90;;;27.10;67.30;;;;;;5038363;28;20101;-82
2023/06/28 07:47:18;;;;;;;6.80;3.27;;;27.20;67.60;;;;;;5037412;28;20041;-82
2023/06/28 07:49:44;;;;;;;3.97;2.93;;;27.30;67.80;;;;;;5038490;28;20553;-82
2023/06/28 07:52:10;;;;;;;4.83;3.03;;;27.40;67.30;;;;;;5038341;28;20034;-83
2023/06/28 07:54:36;;;;;;;4.32;2.95;;;27.50;67.40;;;;;;5036528;28;20505;-80
2023/06/28 07:57:03;;;;;;;4.60;2.92;;;27.60;66.90;;;;;;5036300;28;20036;-82
2023/06/28 07:59:29;;;;;;;7.95;3.38;;;27.60;66.90;;;;;;5038000;28;20045;-82
2023/06/28 08:01:55;;;;;;;4.95;3.28;;;27.60;66.50;;;;;;5038050;28;20037;-80
2023/06/28 08:04:21;;;;;;;9.20;3.75;;;27.70;66.30;;;;;;5036401;28;20028;-80
2023/06/28 08:06:47;;;;;;;4.40;3.30;;;27.80;65.90;;;;;;5036125;28;20029;-83
2023/06/28 08:09:13;;;;;;;4.57;3.67;;;27.90;65.90;;;;;;5037558;28;20022;-81
2023/06/28 08:11:39;;;;;;;5.03;2.80;;;28.10;65.80;;;;;;5037505;28;20087;-81
2023/06/28 08:14:05;;;;;;;4.53;2.85;;;28.10;65.30;;;;;;5037479;28;20330;-81
2023/06/28 08:16:31;;;;;;;4.40;3.55;;;28.10;65.30;;;;;;5019670;28;20025;-81
2023/06/28 08:18:57;;;;;;;3.55;3.08;;;28.20;65.00;;;;;;5035999;28;20032;-82
2023/06/28 08:21:23;;;;;;;5.22;2.90;;;28.10;64.50;;;;;;5036656;28;20033;-83
2023/06/28 08:23:49;;;;;;;5.60;2.90;;;28.20;64.40;;;;;;5020460;28;20470;-81
2023/06/28 08:26:15;;;;;;;4.13;3.13;;;28.10;63.50;;;;;;5035862;28;20045;-80
2023/06/28 08:28:41;;;;;;;6.15;3.30;;;28.10;63.30;;;;;;5035948;28;20469;-82
2023/06/28 08:31:07;;;;;;;5.32;3.33;;;28.10;63.40;;;;;;5035670;28;20041;-83
2023/06/28 08:33:33;;;;;;;3.30;3.00;;;28.20;63.70;;;;;;5019682;28;20116;-82
2023/06/28 08:35:59;;;;;;;5.97;3.45;;;28.30;63.40;;;;;;5034925;28;20057;-82
2023/06/28 08:38:25;;;;;;;4.93;3.40;;;28.30;62.90;;;;;;5036629;28;20021;-82
2023/06/28 08:40:51;;;;;;;4.37;3.30;;;28.40;63.00;;;;;;5035084;28;20379;-80
2023/06/28 08:43:19;;;;;;;5.45;2.88;;;28.50;63.80;;;;;;5036691;28;20029;-83
2023/06/28 08:45:45;;;;;;;13.93;3.67;;;28.60;63.00;;;;;;5018604;28;20026;-82
2023/06/28 08:48:14;;;;;;;5.50;3.23;;;28.70;62.80;;;;;;5037447;28;20075;-80
2023/06/28 08:50:43;;;;;;;4.43;2.97;;;28.70;63.00;;;;;;5035190;28;20329;-83
2023/06/28 08:53:16;;;;;;;6.53;3.00;;;28.70;62.10;;;;;;5037404;28;20029;-80
2023/06/28 08:55:47;;;;;;;3.53;3.00;;;28.70;61.80;;;;;;5036092;28;20374;-82
2023/06/28 08:58:12;;;;;;;3.28;2.97;;;28.70;62.70;;;;;;5019423;28;20388;-80
2023/06/28 09:00:41;;;;;;;5.43;3.87;;;28.70;61.10;;;;;;5035112;28;20037;-82
2023/06/28 09:03:08;;;;;;;8.60;2.95;;;28.70;61.50;;;;;;5034718;28;20083;-82
2023/06/28 09:05:35;;;;;;;6.20;3.33;;;28.60;61.20;;;;;;5035291;28;20555;-81
2023/06/28 09:08:01;;;;;;;4.72;3.58;;;28.70;61.30;;;;;;5034772;28;20021;-79
2023/06/28 09:10:27;;;;;;;6.32;4.20;;;28.60;61.20;;;;;;5036873;28;20470;-80
2023/06/28 09:12:53;;;;;;;4.63;3.38;;;28.60;62.00;;;;;;5036192;28;20033;-80
2023/06/28 09:15:21;;;;;;;5.00;3.78;;;28.60;61.50;;;;;;5036052;28;20033;-83
2023/06/28 09:17:48;;;;;;;8.27;3.70;;;28.50;61.20;;;;;;5036103;28;20065;-83
2023/06/28 09:20:18;;;;;;;8.70;3.90;;;28.40;62.00;;;;;;5034468;28;20183;-83
2023/06/28 09:22:59;;;;;;;7.68;3.35;;;28.40;61.90;;;;;;5034716;28;20030;-83
2023/06/28 09:25:27;;;;;;;10.25;3.08;;;28.40;63.00;;;;;;5035950;28;20048;-81
2023/06/28 09:27:57;;;;;;;6.88;3.65;;;28.40;63.70;;;;;;5034631;28;20021;-80
2023/06/28 09:30:41;;;;;;;5.57;3.97;;;28.50;63.30;;;;;;5034964;28;20268;-80
2023/06/28 09:33:07;;;;;;;5.10;3.53;;;28.40;63.30;;;;;;5034541;28;20115;-81
2023/06/28 09:35:39;;;;;;;10.57;3.93;;;28.40;63.10;;;;;;5034528;28;20379;-81
2023/06/28 09:38:08;;;;;;;7.40;3.97;;;28.30;62.90;;;;;;5036104;28;20456;-81
2023/06/28 09:40:34;;;;;;;9.70;4.10;;;28.40;63.30;;;;;;5035626;28;20445;-82
2023/06/28 09:43:01;;;;;;;5.07;4.35;;;28.50;62.90;;;;;;5034935;28;20079;-80
2023/06/28 09:45:30;;;;;;;9.20;3.90;;;28.50;63.30;;;;;;5035976;28;20034;-80
2023/06/28 09:48:00;;;;;;;4.63;3.80;;;28.50;64.30;;;;;;5035868;28;20021;-79
2023/06/28 09:50:46;;;;;;;5.97;3.47;;;28.60;64.30;;;;;;5018088;28;20414;-83
2023/06/28 09:53:13;;;;;;;4.65;3.53;;;28.70;62.80;;;;;;5017965;28;20034;-80
2023/06/28 09:55:41;;;;;;;6.18;3.35;;;28.80;62.60;;;;;;5035455;28;20482;-81
2023/06/28 09:58:15;;;;;;;7.05;4.40;;;29.00;61.60;;;;;;5036351;28;20037;-80
2023/06/28 10:00:43;;;;;;;5.47;3.45;;;29.00;61.30;;;;;;5035491;28;20075;-83
2023/06/28 10:03:13;;;;;;;5.82;4.00;;;29.00;61.70;;;;;;5038549;28;20029;-82
2023/06/28 10:05:41;;;;;;;9.75;4.45;;;29.00;60.80;;;;;;5039141;28;20033;-80
2023/06/28 10:08:12;;;;;;;5.65;3.58;;;28.90;61.70;;;;;;5041346;28;20025;-82
2023/06/28 10:10:39;;;;;;;11.50;5.40;;;29.00;62.20;;;;;;5040520;28;20041;-79
2023/06/28 10:13:12;;;;;;;6.88;5.32;;;29.00;61.00;;;;;;5041620;28;20037;-79
2023/06/28 10:15:46;;;;;;;7.10;4.20;;;29.20;61.20;;;;;;5040585;28;20159;-82
2023/06/28 10:18:13;;;;;;;6.72;4.95;;;29.30;62.30;;;;;;5048153;28;20056;-84
2023/06/28 10:20:41;;;;;;;6.72;3.75;;;29.30;61.30;;;;;;5028484;28;20037;-85
2023/06/28 10:23:11;;;;;;;6.15;4.60;;;29.30;60.30;;;;;;5038616;28;20033;-83
2023/06/28 10:25:39;;;;;;;6.97;4.90;;;29.30;60.90;;;;;;5047321;28;20022;-82
2023/06/28 10:28:05;;;;;;;11.00;4.40;;;29.40;60.60;;;;;;5046165;28;20033;-82
2023/06/28 10:30:32;;;;;;;11.45;4.55;;;29.60;60.60;;;;;;5046766;28;20032;-83
2023/06/28 10:32:59;;;;;;;8.07;3.97;;;29.70;61.20;;;;;;5047427;28;20032;-83
2023/06/28 10:35:26;;;;;;;12.07;4.93;;;29.80;60.60;;;;;;5048957;28;20033;-83
2023/06/28 10:37:56;;;;;;;15.02;5.15;;;29.90;60.20;;;;;;5050314;28;20460;-85
2023/06/28 10:40:23;;;;;;;11.32;4.55;;;30.00;61.00;;;;;;5045001;28;20477;-85
2023/06/28 10:42:49;;;;;;;6.47;4.68;;;30.00;60.50;;;;;;5039246;28;20100;-84
2023/06/28 10:45:15;;;;;;;9.52;4.60;;;30.00;60.60;;;;;;5017247;28;20481;-84
2023/06/28 10:47:53;;;;;;;8.68;5.05;;;30.00;60.20;;;;;;5017935;28;20409;-83
2023/06/28 10:50:23;;;;;;;6.78;4.82;;;30.30;60.00;;;;;;5014215;28;20505;-84
2023/06/28 10:52:53;;;;;;;10.48;5.35;;;30.30;59.40;;;;;;5014807;28;20033;-85
2023/06/28 10:55:30;;;;;;;12.85;5.75;;;30.40;59.90;;;;;;5036174;28;20052;-84
2023/06/28 10:58:06;;;;;;;7.03;5.07;;;30.30;59.70;;;;;;5033975;28;20037;-85
2023/06/28 11:00:46;;;;;;;7.10;4.65;;;30.50;60.30;;;;;;5049737;22;20049;-82
2023/06/28 11:03:15;;;;;;;9.68;5.05;;;30.70;59.80;;;;;;5034740;28;20029;-81
2023/06/28 11:05:56;;;;;;;7.25;5.22;;;30.90;59.90;;;;;;5041531;28;20021;-84
2023/06/28 11:08:38;;;;;;;8.95;5.47;;;30.90;57.90;;;;;;5033520;28;20029;-82
2023/06/28 11:11:05;;;;;;;8.32;5.15;;;30.80;58.10;;;;;;5034854;28;20480;-81
2023/06/28 11:13:35;;;;;;;7.93;5.45;;;30.80;59.20;;;;;;5023794;28;20022;-84
2023/06/28 11:16:24;;;;;;;9.18;7.97;;;30.90;58.70;;;;;;5015236;28;20502;-85
2023/06/28 11:18:52;;;;;;;11.68;5.28;;;31.00;58.60;;;;;;5014896;28;20235;-85
2023/06/28 11:21:23;;;;;;;7.95;5.18;;;31.20;59.00;;;;;;5015530;28;20026;-85
2023/06/28 11:23:53;;;;;;;10.77;5.82;;;31.40;58.60;;;;;;5030923;28;20406;-81
2023/06/28 11:26:32;;;;;;;12.68;5.05;;;31.60;58.10;;;;;;5031148;28;20080;-81
2023/06/28 11:28:58;;;;;;;8.35;5.25;;;31.80;57.50;;;;;;5032713;28;20064;-80
2023/06/28 11:31:36;;;;;;;5.53;4.93;;;31.90;57.20;;;;;;5012616;28;20072;-80
2023/06/28 11:34:03;;;;;;;7.47;4.68;;;31.80;56.00;;;;;;5034341;28;20029;-79
2023/06/28 11:36:29;;;;;;;11.82;5.72;;;31.80;56.60;;;;;;5017226;28;20063;-80
2023/06/28 11:38:55;;;;;;;7.35;6.10;;;31.80;56.90;;;;;;5033190;28;20036;-81
2023/06/28 11:41:21;;;;;;;8.00;5.70;;;31.90;56.40;;;;;;5023747;28;20029;-80
2023/06/28 11:43:48;;;;;;;7.93;5.43;;;32.00;56.60;;;;;;5028615;28;20356;-80
2023/06/28 11:46:22;;;;;;;11.57;5.75;;;32.20;57.00;;;;;;5033050;28;20029;-80
2023/06/28 11:48:49;;;;;;;5.72;4.88;;;32.30;56.20;;;;;;5016101;28;20021;-80
2023/06/28 11:51:16;;;;;;;6.70;4.68;;;32.40;56.30;;;;;;5022530;28;20057;-80
2023/06/28 11:53:46;;;;;;;;;;;32.40;55.90;;;;;;5013983;28;20036;-80
2023/06/28 11:56:12;;;;;;;6.93;4.90;;;32.30;55.10;;;;;;5013956;28;19913;-80
2023/06/28 11:58:37;;;;;;;10.07;5.20;;;32.50;56.50;;;;;;5018361;28;20087;-80
2023/06/28 12:01:05;;;;;;;10.77;4.82;;;32.70;55.90;;;;;;5022771;28;20033;-80
2023/06/28 12:03:39;;;;;;;12.52;5.80;;;32.70;55.00;;;;;;5013056;28;20387;-80
2023/06/28 12:06:07;;;;;;;5.80;4.97;;;32.70;54.60;;;;;;5014089;28;20109;-80
2023/06/28 12:08:34;;;;;;;6.05;4.68;;;32.70;54.50;;;;;;5014593;28;20033;-80
2023/06/28 12:11:06;;;;;;;5.88;5.22;;;32.80;55.10;;;;;;5032020;28;20087;-80
2023/06/28 12:13:33;;;;;;;5.82;5.15;;;32.90;55.30;;;;;;5021469;28;20568;-80
2023/06/28 12:16:21;;;;;;;10.27;4.93;;;33.10;55.00;;;;;;5019769;28;20386;-80
2023/06/28 12:18:57;;;;;;;6.82;4.95;;;33.20;54.20;;;;;;5028591;28;20026;-80
2023/06/28 12:21:30;;;;;;;5.80;5.10;;;33.20;54.10;;;;;;5022384;28;20707;-80
2023/06/28 12:24:13;;;;;;;6.22;5.10;;;33.30;53.70;;;;;;5019115;28;20565;-80
2023/06/28 12:26:42;;;;;;;7.65;4.57;;;33.30;51.70;;;;;;5012813;28;20029;-80
2023/06/28 12:29:08;;;;;;;8.07;5.35;;;33.30;53.10;;;;;;5014200;28;20026;-80
2023/06/28 12:31:46;;;;;;;7.20;4.60;;;33.40;52.90;;;;;;5024957;28;20087;-80
2023/06/28 12:34:29;;;;;;;6.00;5.07;;;33.30;53.10;;;;;;5016979;28;20041;-80
2023/06/28 12:37:00;;;;;;;5.30;4.18;;;33.60;53.30;;;;;;5032843;28;20025;-80
2023/06/28 12:39:28;;;;;;;5.50;4.93;;;33.50;52.90;;;;;;5031922;28;20124;-80
2023/06/28 12:42:01;;;;;;;7.10;5.25;;;33.40;53.00;;;;;;5019176;28;20030;-80
2023/06/28 12:44:28;;;;;;;12.75;5.45;;;33.40;54.10;;;;;;5029122;28;20029;-80
2023/06/28 12:46:54;;;;;;;7.78;5.50;;;33.50;54.00;;;;;;5012469;28;20049;-80